UAL1775 KTPA-KDEN
Flight info
| Callsign | UAL1775 |
|---|---|
| Flight time | N/A |
| Altitude | 30000 |
| Route | ENDED2 LACEN PATOY Q116 JAWJA CABLO KWANE KF33E/N0474F320 TOTOE HALEN NIIXX4 |
| Aircraft | A21N/M-SDE2E3FGHIRWXY/LB1 |
Departure
| Time | N/A |
|---|---|
| Airport | Tampa International Airport (KTPA) |
Arrival
| Time | 2026-05-06 00:52 |
|---|---|
| Airport | Denver International Airport (KDEN) |
| Time | Latitude | Longitude | Altitude | Speed | Heading |
|---|---|---|---|---|---|
| 2026-05-06 00:40 | 39.35606 | -104.53284 | 12135 ft | 267 kts | 280° |
| 2026-05-06 00:41 | 39.35974 | -104.55603 | 11974 ft | 260 kts | 280° |
| 2026-05-06 00:41 | 39.36380 | -104.57877 | 11961 ft | 261 kts | 287° |
| 2026-05-06 00:41 | 39.37315 | -104.59865 | 11943 ft | 264 kts | 315° |
| 2026-05-06 00:41 | 39.38759 | -104.61300 | 11802 ft | 264 kts | 324° |
| 2026-05-06 00:42 | 39.40250 | -104.62611 | 11576 ft | 254 kts | 324° |
| 2026-05-06 00:42 | 39.41680 | -104.63874 | 11370 ft | 242 kts | 327° |
| 2026-05-06 00:42 | 39.43206 | -104.64710 | 11114 ft | 239 kts | 350° |
| 2026-05-06 00:42 | 39.44864 | -104.64815 | 10907 ft | 239 kts | 1° |
| 2026-05-06 00:43 | 39.46518 | -104.64741 | 10706 ft | 234 kts | 1° |
| 2026-05-06 00:43 | 39.48073 | -104.64678 | 10619 ft | 215 kts | 1° |
| 2026-05-06 00:43 | 39.49511 | -104.64629 | 10497 ft | 199 kts | 1° |
| 2026-05-06 00:43 | 39.50843 | -104.64590 | 10317 ft | 185 kts | 1° |
| 2026-05-06 00:44 | 39.52113 | -104.64562 | 10044 ft | 182 kts | 0° |
| 2026-05-06 00:44 | 39.53376 | -104.64544 | 9859 ft | 181 kts | 0° |
| 2026-05-06 00:44 | 39.54209 | -104.64536 | 9758 ft | 180 kts | 360° |
| 2026-05-06 00:44 | 39.55479 | -104.64518 | 9604 ft | 180 kts | 0° |
| 2026-05-06 00:45 | 39.56717 | -104.64499 | 9462 ft | 178 kts | 0° |
| 2026-05-06 00:45 | 39.57935 | -104.64482 | 9312 ft | 177 kts | 1° |
| 2026-05-06 00:45 | 39.59161 | -104.64467 | 9164 ft | 177 kts | 1° |
| 2026-05-06 00:45 | 39.60389 | -104.64452 | 9015 ft | 176 kts | 1° |
| 2026-05-06 00:46 | 39.61613 | -104.64437 | 8974 ft | 171 kts | 1° |
| 2026-05-06 00:46 | 39.62726 | -104.64425 | 8992 ft | 156 kts | 2° |
| 2026-05-06 00:46 | 39.63806 | -104.64410 | 8990 ft | 156 kts | 2° |
| 2026-05-06 00:46 | 39.64886 | -104.64396 | 8889 ft | 155 kts | 2° |
| 2026-05-06 00:47 | 39.65960 | -104.64385 | 8724 ft | 154 kts | 1° |
| 2026-05-06 00:47 | 39.67029 | -104.64372 | 8526 ft | 152 kts | 1° |
| 2026-05-06 00:47 | 39.68088 | -104.64357 | 8325 ft | 151 kts | 1° |
| 2026-05-06 00:47 | 39.69137 | -104.64345 | 8106 ft | 150 kts | 1° |
| 2026-05-06 00:48 | 39.70189 | -104.64332 | 7914 ft | 149 kts | 1° |
| 2026-05-06 00:48 | 39.71227 | -104.64319 | 7714 ft | 149 kts | 1° |
| 2026-05-06 00:48 | 39.72260 | -104.64307 | 7511 ft | 148 kts | 1° |
| 2026-05-06 00:48 | 39.73286 | -104.64294 | 7323 ft | 147 kts | 1° |
| 2026-05-06 00:49 | 39.74306 | -104.64281 | 7127 ft | 146 kts | 1° |
| 2026-05-06 00:49 | 39.75320 | -104.64269 | 6934 ft | 146 kts | 1° |
| 2026-05-06 00:49 | 39.76315 | -104.64256 | 6743 ft | 145 kts | 2° |
| 2026-05-06 00:49 | 39.77324 | -104.64244 | 6554 ft | 144 kts | 2° |
| 2026-05-06 00:50 | 39.78328 | -104.64231 | 6365 ft | 144 kts | 2° |
| 2026-05-06 00:50 | 39.79330 | -104.64219 | 6177 ft | 144 kts | 2° |
| 2026-05-06 00:50 | 39.80330 | -104.64207 | 5983 ft | 144 kts | 1° |
| 2026-05-06 00:50 | 39.81332 | -104.64195 | 5787 ft | 143 kts | 1° |
| 2026-05-06 00:51 | 39.82328 | -104.64182 | 5595 ft | 143 kts | 1° |
| 2026-05-06 00:51 | 39.83324 | -104.64170 | 5408 ft | 144 kts | 1° |
| 2026-05-06 00:51 | 39.84275 | -104.64159 | 5369 ft | 121 kts | 0° |
| 2026-05-06 00:51 | 39.85007 | -104.64148 | 5369 ft | 93 kts | 1° |
| 2026-05-06 00:52 | 39.85472 | -104.64140 | 5372 ft | 41 kts | 359° |
| 2026-05-06 00:52 | 39.85763 | -104.64137 | 5371 ft | 42 kts | 1° |
| 2026-05-06 00:52 | 39.85977 | -104.64131 | 5375 ft | 10 kts | 1° |
| 2026-05-06 00:52 | 39.86054 | -104.64129 | 5374 ft | 12 kts | 1° |
| 2026-05-06 00:53 | 39.86190 | -104.64126 | 5372 ft | 28 kts | 1° |
| 2026-05-06 00:53 | 39.86388 | -104.64126 | 5372 ft | 29 kts | 359° |
| 2026-05-06 00:53 | 39.86489 | -104.64249 | 5372 ft | 24 kts | 271° |
| 2026-05-06 00:53 | 39.86489 | -104.64472 | 5372 ft | 25 kts | 270° |
| 2026-05-06 00:54 | 39.86490 | -104.64707 | 5372 ft | 27 kts | 270° |
| 2026-05-06 00:54 | 39.86495 | -104.64956 | 5372 ft | 28 kts | 271° |
| 2026-05-06 00:54 | 39.86498 | -104.65217 | 5371 ft | 30 kts | 270° |
| 2026-05-06 00:54 | 39.86499 | -104.65491 | 5371 ft | 31 kts | 270° |
| 2026-05-06 00:55 | 39.86501 | -104.65778 | 5371 ft | 32 kts | 270° |
| 2026-05-06 00:55 | 39.86504 | -104.66078 | 5371 ft | 34 kts | 270° |
| 2026-05-06 00:55 | 39.86473 | -104.66221 | 5371 ft | 16 kts | 199° |
| 2026-05-06 00:55 | 39.86357 | -104.66226 | 5371 ft | 18 kts | 180° |
| 2026-05-06 00:56 | 39.86229 | -104.66227 | 5371 ft | 19 kts | 180° |
| 2026-05-06 00:56 | 39.86111 | -104.66280 | 5371 ft | 21 kts | 244° |
| 2026-05-06 00:56 | 39.85977 | -104.66348 | 5371 ft | 22 kts | 185° |
| 2026-05-06 00:56 | 39.85818 | -104.66350 | 5371 ft | 24 kts | 179° |
| 2026-05-06 00:57 | 39.85656 | -104.66349 | 5371 ft | 18 kts | 180° |
| 2026-05-06 00:57 | 39.85581 | -104.66415 | 5371 ft | 15 kts | 255° |
| 2026-05-06 00:57 | 39.85590 | -104.66553 | 5371 ft | 17 kts | 285° |
| 2026-05-06 00:57 | 39.85579 | -104.66707 | 5371 ft | 18 kts | 272° |
| 2026-05-06 00:58 | 39.85652 | -104.66834 | 5370 ft | 20 kts | 340° |
| 2026-05-06 00:58 | 39.85727 | -104.66964 | 5371 ft | 21 kts | 278° |
| 2026-05-06 00:58 | 39.85741 | -104.67067 | 5371 ft | 7 kts | 310° |
| 2026-05-06 00:58 | 39.85793 | -104.67081 | 5368 ft | 2 kts | 4° |
| 2026-05-06 00:59 | 39.85799 | -104.67081 | 5370 ft | 1 kts | 4° |
| 2026-05-06 00:59 | 39.85809 | -104.67080 | 5371 ft | 0 kts | 1° |